RYR84KM EGGW-LEMI
Flight info
| Callsign | RYR84KM |
|---|---|
| Flight time | 2h 7m |
| Altitude | 33000 |
| Route | RODNI N27 ICTAM Q63 CPT N859 VAPID UN859 SOPIL DCT BALAN DCT LMG DCT PIMQO DCT AGN DCT ANETO DCT POSSY DCT XIMPE DCT RIMES N860 VLC L34 ALT |
| Aircraft | B38M/M-SDE1FGHILORVWXY/HB1 |
Departure
| Time | 2026-04-20 16:18 |
|---|---|
| Airport | London Luton Airport (EGGW) |
Arrival
| Time | 2026-04-20 18:26 |
|---|---|
| Airport | Region of Murcia International Airport (LEMI) |
| Time | Latitude | Longitude | Altitude | Speed | Heading |
|---|---|---|---|---|---|
| 2026-04-20 15:58 | 51.88084 | -0.37751 | 526 ft | 0 kts | 129° |
| 2026-04-20 16:08 | 51.88087 | -0.37757 | 526 ft | 3 kts | 128° |
| 2026-04-20 16:09 | 51.88101 | -0.37786 | 526 ft | 3 kts | 129° |
| 2026-04-20 16:09 | 51.88116 | -0.37804 | 526 ft | 4 kts | 195° |
| 2026-04-20 16:09 | 51.88133 | -0.37781 | 526 ft | 4 kts | 231° |
| 2026-04-20 16:09 | 51.88141 | -0.37764 | 526 ft | 0 kts | 231° |
| 2026-04-20 16:14 | 51.88137 | -0.37771 | 526 ft | 2 kts | 231° |
| 2026-04-20 16:15 | 51.88119 | -0.37804 | 526 ft | 8 kts | 226° |
| 2026-04-20 16:15 | 51.88043 | -0.37903 | 526 ft | 20 kts | 218° |
| 2026-04-20 16:15 | 51.87905 | -0.38011 | 526 ft | 24 kts | 180° |
| 2026-04-20 16:15 | 51.87781 | -0.37849 | 526 ft | 25 kts | 115° |
| 2026-04-20 16:16 | 51.87706 | -0.37590 | 522 ft | 27 kts | 116° |
| 2026-04-20 16:16 | 51.87557 | -0.37462 | 524 ft | 26 kts | 195° |
| 2026-04-20 16:16 | 51.87474 | -0.37703 | 526 ft | 26 kts | 255° |
| 2026-04-20 16:16 | 51.87423 | -0.37985 | 526 ft | 24 kts | 236° |
| 2026-04-20 16:17 | 51.87282 | -0.38110 | 525 ft | 23 kts | 186° |
| 2026-04-20 16:17 | 51.87235 | -0.38263 | 524 ft | 15 kts | 287° |
| 2026-04-20 16:17 | 51.87201 | -0.38333 | 522 ft | 3 kts | 124° |
| 2026-04-20 16:17 | 51.87203 | -0.38321 | 522 ft | 4 kts | 70° |
| 2026-04-20 16:18 | 51.87270 | -0.37961 | 526 ft | 75 kts | 74° |
| 2026-04-20 16:18 | 51.87488 | -0.36720 | 530 ft | 150 kts | 72° |
| 2026-04-20 16:18 | 51.87811 | -0.34973 | 1152 ft | 167 kts | 72° |
| 2026-04-20 16:18 | 51.88160 | -0.33124 | 2080 ft | 177 kts | 72° |
| 2026-04-20 16:19 | 51.88504 | -0.31137 | 2801 ft | 194 kts | 73° |
| 2026-04-20 16:19 | 51.88887 | -0.28912 | 3168 ft | 216 kts | 73° |
| 2026-04-20 16:19 | 51.89214 | -0.26438 | 3856 ft | 234 kts | 88° |
| 2026-04-20 16:19 | 51.88805 | -0.23796 | 4599 ft | 254 kts | 116° |
| 2026-04-20 16:20 | 51.87699 | -0.21554 | 5658 ft | 261 kts | 137° |
| 2026-04-20 16:20 | 51.86066 | -0.20187 | 6650 ft | 270 kts | 165° |
| 2026-04-20 16:20 | 51.84167 | -0.19934 | 7580 ft | 278 kts | 175° |
| 2026-04-20 16:20 | 51.82212 | -0.19742 | 8529 ft | 283 kts | 175° |
| 2026-04-20 16:21 | 51.80237 | -0.19529 | 9451 ft | 288 kts | 175° |
| 2026-04-20 16:21 | 51.78222 | -0.19299 | 10343 ft | 292 kts | 175° |
| 2026-04-20 16:21 | 51.76145 | -0.19050 | 10988 ft | 308 kts | 175° |
| 2026-04-20 16:21 | 51.73939 | -0.18764 | 11438 ft | 327 kts | 175° |
| 2026-04-20 16:22 | 51.71621 | -0.18462 | 12033 ft | 340 kts | 176° |
| 2026-04-20 16:22 | 51.69245 | -0.18162 | 12853 ft | 344 kts | 176° |
| 2026-04-20 16:22 | 51.66843 | -0.17875 | 13641 ft | 348 kts | 177° |
| 2026-04-20 16:22 | 51.64410 | -0.17586 | 14384 ft | 353 kts | 177° |
| 2026-04-20 16:23 | 51.61945 | -0.17292 | 15110 ft | 357 kts | 178° |
| 2026-04-20 16:23 | 51.59453 | -0.16998 | 15815 ft | 362 kts | 178° |
| 2026-04-20 16:23 | 51.56925 | -0.16698 | 16491 ft | 366 kts | 178° |
| 2026-04-20 16:23 | 51.54371 | -0.16397 | 17160 ft | 370 kts | 178° |
| 2026-04-20 16:24 | 51.51795 | -0.16095 | 17796 ft | 374 kts | 178° |
| 2026-04-20 16:24 | 51.49190 | -0.15788 | 18407 ft | 377 kts | 179° |
| 2026-04-20 16:24 | 51.46559 | -0.15481 | 18966 ft | 381 kts | 179° |
| 2026-04-20 16:24 | 51.43894 | -0.15169 | 19529 ft | 386 kts | 179° |
| 2026-04-20 16:25 | 51.41205 | -0.14853 | 20099 ft | 389 kts | 180° |
| 2026-04-20 16:25 | 51.38492 | -0.14537 | 20628 ft | 393 kts | 180° |
| 2026-04-20 16:25 | 51.35749 | -0.14215 | 21153 ft | 398 kts | 181° |
| 2026-04-20 16:25 | 51.32980 | -0.13894 | 21693 ft | 401 kts | 181° |
| 2026-04-20 16:26 | 51.30187 | -0.13571 | 22180 ft | 405 kts | 181° |
| 2026-04-20 16:26 | 51.27362 | -0.13241 | 22673 ft | 408 kts | 181° |
| 2026-04-20 16:26 | 51.24518 | -0.12912 | 23151 ft | 412 kts | 182° |
| 2026-04-20 16:26 | 51.21648 | -0.12580 | 23600 ft | 416 kts | 182° |
| 2026-04-20 16:27 | 51.18749 | -0.12244 | 24077 ft | 419 kts | 182° |
| 2026-04-20 16:27 | 51.15837 | -0.11908 | 24505 ft | 422 kts | 182° |
| 2026-04-20 16:27 | 51.12898 | -0.11568 | 24929 ft | 425 kts | 182° |
| 2026-04-20 16:27 | 51.09942 | -0.11227 | 25390 ft | 427 kts | 183° |
| 2026-04-20 16:28 | 51.06969 | -0.10885 | 25800 ft | 430 kts | 182° |
| 2026-04-20 16:28 | 51.03977 | -0.10541 | 26224 ft | 432 kts | 183° |
| 2026-04-20 16:28 | 51.00972 | -0.10197 | 26615 ft | 435 kts | 182° |
| 2026-04-20 16:28 | 50.97943 | -0.09849 | 27020 ft | 437 kts | 183° |
| 2026-04-20 16:29 | 50.94904 | -0.09503 | 27413 ft | 439 kts | 183° |
| 2026-04-20 16:29 | 50.91848 | -0.09154 | 27793 ft | 441 kts | 183° |
| 2026-04-20 16:29 | 50.88776 | -0.08804 | 28141 ft | 444 kts | 183° |
| 2026-04-20 16:29 | 50.85688 | -0.08452 | 28499 ft | 446 kts | 183° |
| 2026-04-20 16:30 | 50.82586 | -0.08101 | 28868 ft | 448 kts | 183° |
| 2026-04-20 16:30 | 50.79464 | -0.07745 | 29178 ft | 451 kts | 183° |
| 2026-04-20 16:30 | 50.76331 | -0.07390 | 29545 ft | 452 kts | 183° |
| 2026-04-20 16:30 | 50.73184 | -0.07035 | 29861 ft | 455 kts | 183° |
| 2026-04-20 16:31 | 50.70025 | -0.06677 | 30204 ft | 456 kts | 183° |
| 2026-04-20 16:31 | 50.66852 | -0.06322 | 30499 ft | 458 kts | 183° |
| 2026-04-20 16:31 | 50.63670 | -0.05962 | 30779 ft | 461 kts | 183° |
| 2026-04-20 16:31 | 50.60466 | -0.05602 | 31065 ft | 463 kts | 182° |
| 2026-04-20 16:32 | 50.57238 | -0.05240 | 31339 ft | 465 kts | 182° |
| 2026-04-20 16:32 | 50.53999 | -0.04877 | 31595 ft | 468 kts | 182° |
| 2026-04-20 16:32 | 50.50743 | -0.04511 | 31862 ft | 470 kts | 182° |
| 2026-04-20 16:32 | 50.47478 | -0.04148 | 32156 ft | 471 kts | 182° |
| 2026-04-20 16:33 | 50.44210 | -0.03784 | 32480 ft | 471 kts | 182° |
| 2026-04-20 16:33 | 50.40940 | -0.03421 | 32812 ft | 471 kts | 182° |
| 2026-04-20 16:33 | 50.37671 | -0.03059 | 33119 ft | 472 kts | 182° |
| 2026-04-20 16:33 | 50.34394 | -0.02693 | 33243 ft | 473 kts | 182° |
| 2026-04-20 16:34 | 50.27856 | -0.01970 | 33230 ft | 470 kts | 182° |
| 2026-04-20 16:34 | 50.21338 | -0.01249 | 33220 ft | 470 kts | 182° |
| 2026-04-20 16:35 | 50.14809 | -0.00529 | 33216 ft | 470 kts | 182° |
| 2026-04-20 16:35 | 50.08293 | 0.00637 | 33205 ft | 478 kts | 169° |
| 2026-04-20 16:36 | 50.01832 | 0.03231 | 33190 ft | 481 kts | 172° |
| 2026-04-20 16:36 | 49.95331 | 0.05785 | 33207 ft | 482 kts | 172° |
| 2026-04-20 16:37 | 49.88828 | 0.08336 | 33192 ft | 481 kts | 172° |
| 2026-04-20 16:37 | 49.82328 | 0.10880 | 33194 ft | 482 kts | 172° |
| 2026-04-20 16:38 | 49.75827 | 0.13418 | 33194 ft | 482 kts | 172° |
| 2026-04-20 16:38 | 49.69325 | 0.15954 | 33181 ft | 482 kts | 171° |
| 2026-04-20 16:39 | 49.62834 | 0.18575 | 33174 ft | 482 kts | 171° |
| 2026-04-20 16:39 | 49.56355 | 0.21179 | 33185 ft | 481 kts | 171° |
| 2026-04-20 16:40 | 49.49878 | 0.23775 | 33191 ft | 481 kts | 171° |
| 2026-04-20 16:40 | 49.43412 | 0.26359 | 33178 ft | 479 kts | 171° |
| 2026-04-20 16:41 | 49.36957 | 0.28933 | 33187 ft | 479 kts | 171° |
| 2026-04-20 16:41 | 49.30508 | 0.31536 | 33187 ft | 479 kts | 170° |
| 2026-04-20 16:42 | 49.24084 | 0.34260 | 33178 ft | 478 kts | 171° |
| 2026-04-20 16:42 | 49.17670 | 0.36955 | 33180 ft | 477 kts | 171° |
| 2026-04-20 16:43 | 49.11273 | 0.39636 | 33177 ft | 477 kts | 171° |
| 2026-04-20 16:43 | 49.04877 | 0.42309 | 33171 ft | 476 kts | 171° |
| 2026-04-20 16:44 | 48.98492 | 0.44971 | 33172 ft | 476 kts | 171° |
| 2026-04-20 16:44 | 48.92113 | 0.47622 | 33160 ft | 475 kts | 171° |
| 2026-04-20 16:45 | 48.85736 | 0.50267 | 33151 ft | 475 kts | 171° |
| 2026-04-20 16:45 | 48.79407 | 0.52873 | 33151 ft | 474 kts | 172° |
| 2026-04-20 16:46 | 48.73036 | 0.55373 | 33149 ft | 473 kts | 172° |
| 2026-04-20 16:46 | 48.66667 | 0.57875 | 33143 ft | 473 kts | 172° |
| 2026-04-20 16:47 | 48.60296 | 0.60373 | 33148 ft | 473 kts | 172° |
| 2026-04-20 16:47 | 48.53926 | 0.62865 | 33138 ft | 473 kts | 172° |
| 2026-04-20 16:48 | 48.47576 | 0.65443 | 33138 ft | 472 kts | 171° |
| 2026-04-20 16:48 | 48.41228 | 0.68018 | 33124 ft | 472 kts | 171° |
| 2026-04-20 16:49 | 48.34882 | 0.70584 | 33128 ft | 472 kts | 171° |
| 2026-04-20 16:49 | 48.28544 | 0.73140 | 33119 ft | 472 kts | 171° |
| 2026-04-20 16:50 | 48.22200 | 0.75658 | 33111 ft | 472 kts | 172° |
| 2026-04-20 16:50 | 48.15858 | 0.78156 | 33110 ft | 471 kts | 172° |
| 2026-04-20 16:51 | 48.09524 | 0.80646 | 33113 ft | 471 kts | 172° |
| 2026-04-20 16:51 | 48.03193 | 0.83128 | 33112 ft | 470 kts | 172° |
| 2026-04-20 16:52 | 47.96867 | 0.85602 | 33091 ft | 469 kts | 172° |
| 2026-04-20 16:52 | 47.90571 | 0.88060 | 33073 ft | 467 kts | 172° |
| 2026-04-20 16:53 | 47.84255 | 0.90516 | 33083 ft | 470 kts | 172° |
| 2026-04-20 16:53 | 47.77927 | 0.92969 | 33080 ft | 470 kts | 172° |
| 2026-04-20 16:54 | 47.71599 | 0.95418 | 33079 ft | 470 kts | 172° |
| 2026-04-20 16:54 | 47.65276 | 0.97857 | 33075 ft | 469 kts | 172° |
| 2026-04-20 16:55 | 47.60020 | 0.99880 | 33073 ft | 470 kts | 172° |
| 2026-04-20 16:55 | 47.53693 | 1.02310 | 33073 ft | 469 kts | 172° |
| 2026-04-20 16:56 | 47.47379 | 1.04729 | 33071 ft | 469 kts | 172° |
| 2026-04-20 16:56 | 47.41055 | 1.06350 | 33069 ft | 451 kts | 189° |
| 2026-04-20 16:57 | 47.34744 | 1.06229 | 33046 ft | 454 kts | 187° |
| 2026-04-20 16:57 | 47.28430 | 1.06102 | 33065 ft | 454 kts | 188° |
| 2026-04-20 16:58 | 47.22118 | 1.05955 | 33067 ft | 454 kts | 188° |
| 2026-04-20 16:58 | 47.15801 | 1.05808 | 33060 ft | 454 kts | 188° |
| 2026-04-20 16:59 | 47.09499 | 1.05661 | 33054 ft | 452 kts | 187° |
| 2026-04-20 16:59 | 47.03203 | 1.05507 | 33056 ft | 452 kts | 188° |
| 2026-04-20 17:00 | 46.93780 | 1.05097 | 33052 ft | 452 kts | 188° |
| 2026-04-20 17:01 | 46.87497 | 1.04833 | 33047 ft | 452 kts | 188° |
| 2026-04-20 17:01 | 46.81219 | 1.04569 | 33045 ft | 451 kts | 188° |
| 2026-04-20 17:02 | 46.74940 | 1.04306 | 33039 ft | 451 kts | 188° |
| 2026-04-20 17:02 | 46.68674 | 1.04045 | 33035 ft | 451 kts | 188° |
| 2026-04-20 17:03 | 46.62403 | 1.03783 | 33038 ft | 451 kts | 188° |
| 2026-04-20 17:03 | 46.56136 | 1.03523 | 33035 ft | 450 kts | 188° |
| 2026-04-20 17:04 | 46.49860 | 1.03348 | 33020 ft | 452 kts | 187° |
| 2026-04-20 17:04 | 46.43571 | 1.03287 | 33021 ft | 452 kts | 187° |
| 2026-04-20 17:05 | 46.37296 | 1.03213 | 33013 ft | 451 kts | 187° |
| 2026-04-20 17:05 | 46.31024 | 1.03138 | 33011 ft | 451 kts | 187° |
| 2026-04-20 17:06 | 46.24749 | 1.03064 | 33009 ft | 451 kts | 187° |
| 2026-04-20 17:06 | 46.18479 | 1.02990 | 32998 ft | 451 kts | 187° |
| 2026-04-20 17:07 | 46.12208 | 1.02917 | 32998 ft | 450 kts | 187° |
| 2026-04-20 17:07 | 46.05937 | 1.02842 | 32999 ft | 451 kts | 187° |
| 2026-04-20 17:08 | 45.99685 | 1.02770 | 32997 ft | 447 kts | 187° |
| 2026-04-20 17:08 | 45.93481 | 1.02697 | 32995 ft | 445 kts | 187° |
| 2026-04-20 17:09 | 45.87299 | 1.02624 | 32984 ft | 444 kts | 187° |
| 2026-04-20 17:09 | 45.81105 | 1.02691 | 32973 ft | 450 kts | 178° |
| 2026-04-20 17:10 | 45.74899 | 1.04297 | 32955 ft | 453 kts | 176° |
| 2026-04-20 17:10 | 45.68698 | 1.05881 | 32988 ft | 454 kts | 176° |
| 2026-04-20 17:11 | 45.62485 | 1.07475 | 32986 ft | 453 kts | 176° |
| 2026-04-20 17:11 | 45.56275 | 1.09066 | 32968 ft | 453 kts | 176° |
| 2026-04-20 17:12 | 45.50062 | 1.10654 | 32967 ft | 454 kts | 176° |
| 2026-04-20 17:12 | 45.43895 | 1.12226 | 32950 ft | 453 kts | 176° |
| 2026-04-20 17:13 | 45.37685 | 1.13806 | 32947 ft | 453 kts | 176° |
| 2026-04-20 17:13 | 45.31481 | 1.15381 | 32925 ft | 452 kts | 176° |
| 2026-04-20 17:14 | 45.25278 | 1.16953 | 32927 ft | 453 kts | 176° |
| 2026-04-20 17:14 | 45.19083 | 1.18519 | 32922 ft | 452 kts | 175° |
| 2026-04-20 17:14 | 45.15985 | 1.18996 | 32906 ft | 442 kts | 188° |
| 2026-04-20 17:15 | 45.12982 | 1.18422 | 32932 ft | 434 kts | 195° |
| 2026-04-20 17:15 | 45.07004 | 1.16995 | 32914 ft | 436 kts | 196° |
| 2026-04-20 17:16 | 45.01033 | 1.15490 | 32921 ft | 435 kts | 196° |
| 2026-04-20 17:16 | 44.95068 | 1.13965 | 32922 ft | 436 kts | 196° |
| 2026-04-20 17:17 | 44.89103 | 1.12441 | 32925 ft | 435 kts | 196° |
| 2026-04-20 17:17 | 44.83147 | 1.10923 | 32918 ft | 435 kts | 196° |
| 2026-04-20 17:18 | 44.77186 | 1.09406 | 32923 ft | 435 kts | 196° |
| 2026-04-20 17:18 | 44.71223 | 1.07893 | 32924 ft | 435 kts | 196° |
| 2026-04-20 17:19 | 44.65264 | 1.06382 | 32918 ft | 435 kts | 196° |
| 2026-04-20 17:19 | 44.59304 | 1.04876 | 32920 ft | 436 kts | 196° |
| 2026-04-20 17:20 | 44.53341 | 1.03371 | 32908 ft | 435 kts | 196° |
| 2026-04-20 17:20 | 44.47380 | 1.01870 | 32918 ft | 435 kts | 196° |
| 2026-04-20 17:21 | 44.41418 | 1.00373 | 32918 ft | 435 kts | 196° |
| 2026-04-20 17:21 | 44.35464 | 0.98880 | 32911 ft | 435 kts | 195° |
| 2026-04-20 17:22 | 44.29508 | 0.97389 | 32914 ft | 435 kts | 195° |
| 2026-04-20 17:22 | 44.23549 | 0.95902 | 32914 ft | 435 kts | 195° |
| 2026-04-20 17:23 | 44.17595 | 0.94418 | 32919 ft | 435 kts | 195° |
| 2026-04-20 17:23 | 44.11637 | 0.92937 | 32917 ft | 435 kts | 195° |
| 2026-04-20 17:24 | 44.05679 | 0.91459 | 32915 ft | 435 kts | 195° |
| 2026-04-20 17:24 | 43.99720 | 0.89982 | 32913 ft | 435 kts | 195° |
| 2026-04-20 17:25 | 43.93756 | 0.88508 | 32924 ft | 436 kts | 195° |
| 2026-04-20 17:25 | 43.87792 | 0.86996 | 32924 ft | 435 kts | 196° |
| 2026-04-20 17:26 | 43.81849 | 0.85392 | 32927 ft | 435 kts | 196° |
| 2026-04-20 17:26 | 43.75904 | 0.83802 | 32920 ft | 435 kts | 196° |
| 2026-04-20 17:27 | 43.69956 | 0.82215 | 32928 ft | 435 kts | 196° |
| 2026-04-20 17:27 | 43.64011 | 0.80633 | 32933 ft | 435 kts | 196° |
| 2026-04-20 17:28 | 43.58065 | 0.79054 | 32933 ft | 435 kts | 196° |
| 2026-04-20 17:28 | 43.52118 | 0.77477 | 32934 ft | 435 kts | 196° |
| 2026-04-20 17:29 | 43.46167 | 0.75903 | 32935 ft | 435 kts | 196° |
| 2026-04-20 17:29 | 43.40218 | 0.74332 | 32939 ft | 436 kts | 196° |
| 2026-04-20 17:30 | 43.34258 | 0.72762 | 32939 ft | 436 kts | 195° |
| 2026-04-20 17:30 | 43.28295 | 0.71193 | 32939 ft | 436 kts | 195° |
| 2026-04-20 17:31 | 43.22334 | 0.69629 | 32948 ft | 436 kts | 195° |
| 2026-04-20 17:31 | 43.16408 | 0.68077 | 32944 ft | 436 kts | 195° |
| 2026-04-20 17:32 | 43.10445 | 0.66518 | 32951 ft | 437 kts | 195° |
| 2026-04-20 17:32 | 43.04474 | 0.64960 | 32960 ft | 437 kts | 195° |
| 2026-04-20 17:33 | 42.98507 | 0.63407 | 32958 ft | 436 kts | 195° |
| 2026-04-20 17:33 | 42.92535 | 0.61855 | 32942 ft | 437 kts | 195° |
| 2026-04-20 17:34 | 42.86574 | 0.60308 | 32970 ft | 437 kts | 195° |
| 2026-04-20 17:34 | 42.80597 | 0.58761 | 32939 ft | 435 kts | 195° |
| 2026-04-20 17:35 | 42.74633 | 0.57219 | 32952 ft | 437 kts | 195° |
| 2026-04-20 17:35 | 42.68724 | 0.55392 | 32942 ft | 429 kts | 208° |
| 2026-04-20 17:36 | 42.63316 | 0.51968 | 32952 ft | 430 kts | 209° |
| 2026-04-20 17:36 | 42.57904 | 0.48536 | 32940 ft | 429 kts | 209° |
| 2026-04-20 17:37 | 42.52492 | 0.45079 | 32925 ft | 430 kts | 209° |
| 2026-04-20 17:37 | 42.47077 | 0.41625 | 32943 ft | 431 kts | 209° |
| 2026-04-20 17:38 | 42.41665 | 0.38179 | 32931 ft | 430 kts | 209° |
| 2026-04-20 17:38 | 42.36247 | 0.34736 | 32921 ft | 430 kts | 209° |
| 2026-04-20 17:39 | 42.31748 | 0.31882 | 32927 ft | 430 kts | 209° |
| 2026-04-20 17:39 | 42.26331 | 0.28452 | 32942 ft | 430 kts | 209° |
| 2026-04-20 17:40 | 42.20913 | 0.25027 | 32944 ft | 430 kts | 209° |
| 2026-04-20 17:40 | 42.15493 | 0.21609 | 32940 ft | 430 kts | 209° |
| 2026-04-20 17:41 | 42.10074 | 0.18195 | 32934 ft | 431 kts | 209° |
| 2026-04-20 17:41 | 42.04420 | 0.15541 | 32914 ft | 438 kts | 190° |
| 2026-04-20 17:42 | 41.98340 | 0.14580 | 32918 ft | 440 kts | 191° |
| 2026-04-20 17:42 | 41.92248 | 0.13636 | 32925 ft | 441 kts | 191° |
| 2026-04-20 17:43 | 41.86151 | 0.12720 | 32926 ft | 441 kts | 190° |
| 2026-04-20 17:43 | 41.80055 | 0.11810 | 32925 ft | 441 kts | 190° |
| 2026-04-20 17:44 | 41.73966 | 0.10902 | 32929 ft | 441 kts | 190° |
| 2026-04-20 17:44 | 41.67868 | 0.09995 | 32921 ft | 441 kts | 190° |
| 2026-04-20 17:45 | 41.61773 | 0.09090 | 32921 ft | 441 kts | 190° |
| 2026-04-20 17:45 | 41.55681 | 0.08186 | 32924 ft | 441 kts | 191° |
| 2026-04-20 17:46 | 41.49588 | 0.07285 | 32922 ft | 441 kts | 191° |
| 2026-04-20 17:46 | 41.43486 | 0.06384 | 32929 ft | 441 kts | 190° |
| 2026-04-20 17:47 | 41.37387 | 0.05485 | 32924 ft | 441 kts | 191° |
| 2026-04-20 17:47 | 41.31281 | 0.04587 | 32922 ft | 442 kts | 191° |
| 2026-04-20 17:48 | 41.25173 | 0.03690 | 32930 ft | 442 kts | 191° |
| 2026-04-20 17:48 | 41.19060 | 0.02793 | 32931 ft | 442 kts | 191° |
| 2026-04-20 17:49 | 41.12953 | 0.01900 | 32935 ft | 442 kts | 191° |
| 2026-04-20 17:49 | 41.06837 | 0.01006 | 32935 ft | 442 kts | 191° |
| 2026-04-20 17:50 | 41.00726 | 0.00114 | 32933 ft | 443 kts | 191° |
| 2026-04-20 17:50 | 40.94649 | -0.00771 | 32941 ft | 439 kts | 191° |
| 2026-04-20 17:51 | 40.88624 | -0.01648 | 32934 ft | 434 kts | 191° |
| 2026-04-20 17:51 | 40.82619 | -0.02520 | 32948 ft | 434 kts | 191° |
| 2026-04-20 17:52 | 40.76619 | -0.03389 | 32959 ft | 433 kts | 191° |
| 2026-04-20 17:52 | 40.70623 | -0.04256 | 32945 ft | 434 kts | 191° |
| 2026-04-20 17:53 | 40.64626 | -0.05123 | 32943 ft | 434 kts | 191° |
| 2026-04-20 17:53 | 40.58633 | -0.05986 | 32947 ft | 433 kts | 191° |
| 2026-04-20 17:54 | 40.52817 | -0.07608 | 32961 ft | 425 kts | 201° |
| 2026-04-20 17:54 | 40.47127 | -0.09839 | 32942 ft | 427 kts | 201° |
| 2026-04-20 17:55 | 40.41441 | -0.12085 | 32947 ft | 427 kts | 201° |
| 2026-04-20 17:55 | 40.35757 | -0.14332 | 32954 ft | 427 kts | 201° |
| 2026-04-20 17:56 | 40.30067 | -0.16577 | 32961 ft | 426 kts | 201° |
| 2026-04-20 17:56 | 40.24384 | -0.18816 | 32962 ft | 427 kts | 201° |
| 2026-04-20 17:57 | 40.18701 | -0.21050 | 32958 ft | 426 kts | 201° |
| 2026-04-20 17:57 | 40.13020 | -0.23280 | 32949 ft | 426 kts | 201° |
| 2026-04-20 17:58 | 40.07340 | -0.25505 | 32948 ft | 426 kts | 201° |
| 2026-04-20 17:58 | 40.01659 | -0.27727 | 32952 ft | 426 kts | 201° |
| 2026-04-20 17:59 | 39.95977 | -0.29943 | 32953 ft | 426 kts | 200° |
| 2026-04-20 17:59 | 39.90304 | -0.32153 | 32941 ft | 425 kts | 200° |
| 2026-04-20 18:00 | 39.84631 | -0.34362 | 32947 ft | 425 kts | 200° |
| 2026-04-20 18:00 | 39.78999 | -0.36548 | 32938 ft | 425 kts | 200° |
| 2026-04-20 18:01 | 39.73452 | -0.38699 | 32940 ft | 404 kts | 200° |
| 2026-04-20 18:01 | 39.68101 | -0.40770 | 32951 ft | 400 kts | 200° |
| 2026-04-20 18:02 | 39.62776 | -0.42829 | 32940 ft | 399 kts | 200° |
| 2026-04-20 18:02 | 39.57455 | -0.44882 | 32935 ft | 399 kts | 200° |
| 2026-04-20 18:03 | 39.52130 | -0.46933 | 32934 ft | 399 kts | 200° |
| 2026-04-20 18:03 | 39.46700 | -0.48423 | 32938 ft | 404 kts | 186° |
| 2026-04-20 18:04 | 39.41069 | -0.48838 | 32928 ft | 405 kts | 187° |
| 2026-04-20 18:04 | 39.35433 | -0.49258 | 32480 ft | 407 kts | 187° |
| 2026-04-20 18:04 | 39.32579 | -0.49466 | 31629 ft | 414 kts | 187° |
| 2026-04-20 18:05 | 39.26747 | -0.49887 | 29959 ft | 421 kts | 187° |
| 2026-04-20 18:05 | 39.23836 | -0.50098 | 29145 ft | 417 kts | 187° |
| 2026-04-20 18:05 | 39.20951 | -0.50306 | 28343 ft | 413 kts | 187° |
| 2026-04-20 18:06 | 39.18097 | -0.50511 | 27552 ft | 409 kts | 187° |
| 2026-04-20 18:06 | 39.15271 | -0.50714 | 26765 ft | 404 kts | 186° |
| 2026-04-20 18:06 | 39.12478 | -0.50916 | 25991 ft | 400 kts | 186° |
| 2026-04-20 18:06 | 39.09713 | -0.51115 | 25226 ft | 396 kts | 186° |
| 2026-04-20 18:07 | 39.06982 | -0.51311 | 24468 ft | 391 kts | 186° |
| 2026-04-20 18:07 | 39.04278 | -0.51506 | 23729 ft | 387 kts | 185° |
| 2026-04-20 18:07 | 39.01602 | -0.51699 | 22985 ft | 383 kts | 185° |
| 2026-04-20 18:07 | 38.98950 | -0.51889 | 22251 ft | 380 kts | 186° |
| 2026-04-20 18:08 | 38.96323 | -0.52078 | 21523 ft | 377 kts | 185° |
| 2026-04-20 18:08 | 38.93720 | -0.52264 | 20800 ft | 373 kts | 185° |
| 2026-04-20 18:08 | 38.91144 | -0.52449 | 20106 ft | 368 kts | 185° |
| 2026-04-20 18:08 | 38.88616 | -0.52630 | 19681 ft | 357 kts | 186° |
| 2026-04-20 18:09 | 38.86175 | -0.52804 | 19307 ft | 345 kts | 186° |
| 2026-04-20 18:09 | 38.83822 | -0.52971 | 18952 ft | 333 kts | 186° |
| 2026-04-20 18:09 | 38.81544 | -0.53135 | 18618 ft | 325 kts | 186° |
| 2026-04-20 18:09 | 38.79292 | -0.53295 | 18266 ft | 323 kts | 186° |
| 2026-04-20 18:10 | 38.77051 | -0.53455 | 17939 ft | 321 kts | 186° |
| 2026-04-20 18:10 | 38.74827 | -0.53614 | 17600 ft | 319 kts | 186° |
| 2026-04-20 18:10 | 38.72615 | -0.53771 | 17275 ft | 317 kts | 186° |
| 2026-04-20 18:10 | 38.70421 | -0.53927 | 16937 ft | 315 kts | 186° |
| 2026-04-20 18:11 | 38.68245 | -0.54082 | 16622 ft | 312 kts | 186° |
| 2026-04-20 18:11 | 38.66082 | -0.54236 | 16294 ft | 310 kts | 186° |
| 2026-04-20 18:11 | 38.63935 | -0.54389 | 15970 ft | 309 kts | 186° |
| 2026-04-20 18:11 | 38.61798 | -0.54541 | 15642 ft | 307 kts | 186° |
| 2026-04-20 18:12 | 38.59671 | -0.54691 | 15319 ft | 305 kts | 185° |
| 2026-04-20 18:12 | 38.57558 | -0.54842 | 15000 ft | 303 kts | 185° |
| 2026-04-20 18:12 | 38.55458 | -0.54990 | 14675 ft | 302 kts | 185° |
| 2026-04-20 18:12 | 38.53365 | -0.55138 | 14367 ft | 300 kts | 185° |
| 2026-04-20 18:13 | 38.51290 | -0.55284 | 14045 ft | 298 kts | 185° |
| 2026-04-20 18:13 | 38.49225 | -0.55431 | 13715 ft | 296 kts | 185° |
| 2026-04-20 18:13 | 38.47163 | -0.55577 | 13439 ft | 298 kts | 185° |
| 2026-04-20 18:13 | 38.45068 | -0.55724 | 13136 ft | 304 kts | 185° |
| 2026-04-20 18:14 | 38.42978 | -0.55872 | 12795 ft | 306 kts | 185° |
| 2026-04-20 18:14 | 38.40859 | -0.56023 | 12495 ft | 305 kts | 185° |
| 2026-04-20 18:14 | 38.38739 | -0.56173 | 12188 ft | 304 kts | 185° |
| 2026-04-20 18:14 | 38.36622 | -0.56321 | 11852 ft | 304 kts | 185° |
| 2026-04-20 18:15 | 38.34516 | -0.56470 | 11519 ft | 302 kts | 185° |
| 2026-04-20 18:15 | 38.32423 | -0.56617 | 11184 ft | 300 kts | 184° |
| 2026-04-20 18:15 | 38.31046 | -0.56713 | 10973 ft | 299 kts | 184° |
| 2026-04-20 18:15 | 38.28298 | -0.57031 | 10523 ft | 295 kts | 196° |
| 2026-04-20 18:16 | 38.26496 | -0.58219 | 10138 ft | 292 kts | 221° |
| 2026-04-20 18:16 | 38.25201 | -0.60168 | 9959 ft | 285 kts | 233° |
| 2026-04-20 18:16 | 38.24020 | -0.62137 | 9786 ft | 276 kts | 226° |
| 2026-04-20 18:16 | 38.22489 | -0.63633 | 9070 ft | 286 kts | 207° |
| 2026-04-20 18:17 | 38.20671 | -0.64773 | 8586 ft | 291 kts | 206° |
| 2026-04-20 18:17 | 38.18897 | -0.65924 | 8501 ft | 281 kts | 207° |
| 2026-04-20 18:17 | 38.17192 | -0.67053 | 8352 ft | 273 kts | 207° |
| 2026-04-20 18:17 | 38.15529 | -0.68167 | 8108 ft | 269 kts | 207° |
| 2026-04-20 18:18 | 38.13990 | -0.69500 | 7784 ft | 269 kts | 223° |
| 2026-04-20 18:18 | 38.12670 | -0.71177 | 7478 ft | 268 kts | 224° |
| 2026-04-20 18:18 | 38.11357 | -0.72842 | 7186 ft | 266 kts | 224° |
| 2026-04-20 18:18 | 38.10056 | -0.74497 | 6895 ft | 264 kts | 224° |
| 2026-04-20 18:19 | 38.08760 | -0.76142 | 6593 ft | 263 kts | 224° |
| 2026-04-20 18:19 | 38.07464 | -0.77780 | 6276 ft | 263 kts | 223° |
| 2026-04-20 18:19 | 38.06176 | -0.79408 | 6003 ft | 260 kts | 223° |
| 2026-04-20 18:19 | 38.04900 | -0.81019 | 5740 ft | 257 kts | 224° |
| 2026-04-20 18:20 | 38.03638 | -0.82614 | 5513 ft | 254 kts | 223° |
| 2026-04-20 18:20 | 38.02407 | -0.84168 | 5373 ft | 246 kts | 223° |
| 2026-04-20 18:20 | 38.01213 | -0.85672 | 5253 ft | 237 kts | 223° |
| 2026-04-20 18:20 | 38.00062 | -0.87122 | 5125 ft | 229 kts | 223° |
| 2026-04-20 18:21 | 37.98953 | -0.88520 | 4986 ft | 222 kts | 223° |
| 2026-04-20 18:21 | 37.97847 | -0.89913 | 4880 ft | 227 kts | 224° |
| 2026-04-20 18:21 | 37.96723 | -0.91332 | 4763 ft | 228 kts | 224° |
| 2026-04-20 18:21 | 37.95610 | -0.92768 | 4525 ft | 229 kts | 224° |
| 2026-04-20 18:22 | 37.94505 | -0.94194 | 4245 ft | 230 kts | 224° |
| 2026-04-20 18:22 | 37.93373 | -0.95653 | 3977 ft | 228 kts | 224° |
| 2026-04-20 18:22 | 37.92293 | -0.97049 | 3777 ft | 224 kts | 224° |
| 2026-04-20 18:22 | 37.91195 | -0.98463 | 3436 ft | 225 kts | 224° |
| 2026-04-20 18:23 | 37.90100 | -0.99875 | 3121 ft | 224 kts | 224° |
| 2026-04-20 18:23 | 37.89012 | -1.01277 | 2814 ft | 223 kts | 224° |
| 2026-04-20 18:23 | 37.87929 | -1.02674 | 2516 ft | 222 kts | 224° |
| 2026-04-20 18:23 | 37.86846 | -1.04068 | 2219 ft | 222 kts | 224° |
| 2026-04-20 18:24 | 37.85778 | -1.05443 | 1920 ft | 214 kts | 224° |
| 2026-04-20 18:24 | 37.84788 | -1.06718 | 1668 ft | 191 kts | 224° |
| 2026-04-20 18:24 | 37.83908 | -1.07850 | 1431 ft | 169 kts | 224° |
| 2026-04-20 18:24 | 37.83120 | -1.08863 | 1160 ft | 156 kts | 224° |
| 2026-04-20 18:25 | 37.82362 | -1.09827 | 954 ft | 154 kts | 224° |
| 2026-04-20 18:25 | 37.81614 | -1.10798 | 771 ft | 154 kts | 225° |
| 2026-04-20 18:25 | 37.80883 | -1.11747 | 655 ft | 143 kts | 225° |
| 2026-04-20 18:25 | 37.80444 | -1.12302 | 652 ft | 121 kts | 225° |
| 2026-04-20 18:26 | 37.79976 | -1.12912 | 652 ft | 45 kts | 235° |
| 2026-04-20 18:26 | 37.79894 | -1.13184 | 654 ft | 13 kts | 266° |
| 2026-04-20 18:26 | 37.79939 | -1.13245 | 654 ft | 12 kts | 5° |
| 2026-04-20 18:26 | 37.80004 | -1.13177 | 654 ft | 14 kts | 48° |
| 2026-04-20 18:27 | 37.80073 | -1.13091 | 654 ft | 13 kts | 35° |
| 2026-04-20 18:27 | 37.80160 | -1.13125 | 651 ft | 16 kts | 308° |
| 2026-04-20 18:27 | 37.80221 | -1.13146 | 649 ft | 10 kts | 34° |
| 2026-04-20 18:27 | 37.80261 | -1.13103 | 650 ft | 3 kts | 45° |
| 2026-04-20 18:28 | 37.80281 | -1.13077 | 649 ft | 5 kts | 45° |
| 2026-04-20 18:28 | 37.80312 | -1.13035 | 649 ft | 8 kts | 46° |
| 2026-04-20 18:28 | 37.80327 | -1.13015 | 649 ft | 1 kts | 46° |
| 2026-04-20 18:28 | 37.80341 | -1.13002 | 649 ft | 3 kts | 20° |
| 2026-04-20 18:29 | 37.80355 | -1.13011 | 649 ft | 3 kts | 317° |
| 2026-04-20 18:29 | 37.80376 | -1.13035 | 649 ft | 5 kts | 317° |
| 2026-04-20 18:29 | 37.80391 | -1.13054 | 649 ft | 1 kts | 317° |
| 2026-04-20 18:29 | 37.80394 | -1.13057 | 649 ft | 0 kts | 316° |
| 2026-04-20 18:37 | 43.32140 | 3.35344 | 61 ft | 0 kts | 184° |